Time;durP1;ratioP1;P1;durP2;ratioP2;P2;SDS_P1;SDS_P2;PMS_P1;PMS_P2;Temp;Humidity;BMP_temperature;BMP_pressure;BME280_temperature;BME280_humidity;BME280_pressure;Samples;Min_cycle;Max_cycle;Signal;HPM_P1;HPM_P2
2022/09/12 00:00:30;;;;;;;21.77;19.33;;;;;;;14.98;84.08;101485.09;3586811;39;20068;-62
2022/09/12 00:02:57;;;;;;;21.17;18.88;;;;;;;14.99;84.49;101477.84;3586687;39;20051;-63
2022/09/12 00:05:25;;;;;;;21.05;18.25;;;;;;;14.88;84.08;101458.78;3587474;39;21240;-62
2022/09/12 00:07:50;;;;;;;21.95;18.58;;;;;;;14.99;83.83;101477.84;3587833;39;20075;-63
2022/09/12 00:10:16;;;;;;;22.30;18.80;;;;;;;14.94;83.78;101475.47;3587596;39;20414;-63
2022/09/12 00:12:42;;;;;;;21.67;19.25;;;;;;;14.94;83.49;101470.06;3587653;39;20157;-62
2022/09/12 00:15:09;;;;;;;21.55;18.40;;;;;;;14.91;84.13;101464.84;3586887;39;20067;-63
2022/09/12 00:17:37;;;;;;;20.55;17.75;;;;;;;14.87;84.43;101460.59;3590156;39;20352;-63
2022/09/12 00:20:08;;;;;;;22.13;18.50;;;;;;;14.86;84.22;101461.59;3584755;39;20068;-62
2022/09/12 00:22:35;;;;;;;22.33;18.40;;;;;;;14.86;84.13;101456.19;3588537;39;20384;-62
2022/09/12 00:25:01;;;;;;;20.50;18.30;;;;;;;14.86;83.71;101458.88;3587134;39;20060;-63
2022/09/12 00:27:27;;;;;;;21.10;17.15;;;;;;;14.85;83.96;101460.72;3590292;39;20063;-63
2022/09/12 00:29:53;;;;;;;20.23;17.58;;;;;;;14.86;83.81;101462.44;3587507;39;20055;-62
2022/09/12 00:32:20;;;;;;;25.73;18.50;;;;;;;14.87;84.54;101460.59;3589631;39;20375;-63
2022/09/12 00:34:46;;;;;;;20.83;18.63;;;;;;;14.85;84.16;101454.44;3589729;39;20092;-62
2022/09/12 00:37:12;;;;;;;20.98;18.77;;;;;;;14.82;84.20;101455.53;3590664;39;20064;-62
2022/09/12 00:39:38;;;;;;;21.73;18.30;;;;;;;14.79;83.82;101453.03;3589144;39;20355;-63
2022/09/12 00:42:04;;;;;;;23.52;18.58;;;;;;;14.57;84.27;101418.47;3586638;39;20437;-62
2022/09/12 00:44:29;;;;;;;22.23;18.75;;;;;;;14.74;84.52;101446.19;3587455;39;20063;-62
2022/09/12 00:47:22;;;;;;;21.75;19.50;;;;;;;14.64;84.17;101440.56;3587404;39;20415;-63
2022/09/12 00:50:12;;;;;;;22.67;19.23;;;;;;;14.64;84.45;101440.56;3587512;39;20052;-62
2022/09/12 00:52:56;;;;;;;21.73;19.00;;;;;;;14.62;84.31;101447.94;3585605;39;20099;-61
2022/09/12 00:55:35;;;;;;;21.20;18.25;;;;;;;14.57;83.86;101437.41;3590240;39;20329;-63
2022/09/12 00:58:24;;;;;;;21.27;17.38;;;;;;;14.59;84.22;101435.47;3588761;39;20078;-62
2022/09/12 01:00:51;;;;;;;22.45;16.90;;;;;;;14.62;84.15;101435.28;3588460;39;20048;-62
2022/09/12 01:03:22;;;;;;;21.73;16.77;;;;;;;14.61;83.78;101436.22;3588951;39;20108;-63
2022/09/12 01:06:20;;;;;;;19.90;17.60;;;;;;;14.59;84.10;101435.47;3589177;39;20064;-62
2022/09/12 01:08:49;;;;;;;19.95;17.65;;;;;;;14.58;83.71;101425.59;3585551;39;20355;-63
2022/09/12 01:11:17;;;;;;;23.95;19.30;;;;;;;14.57;84.12;101432.00;3586256;39;20052;-62
2022/09/12 01:13:44;;;;;;;22.42;19.05;;;;;;;14.55;84.49;101423.13;3586499;39;20048;-62
2022/09/12 01:16:11;;;;;;;21.83;19.52;;;;;;;14.54;84.65;101426.81;3587620;39;20063;-62
2022/09/12 01:19:34;;;;;;;24.02;20.13;;;;;;;14.51;84.35;101427.00;3587133;39;20048;-62
2022/09/12 01:22:43;;;;;;;26.25;21.45;;;;;;;14.46;85.02;101423.75;3587226;39;20334;-63
2022/09/12 01:25:50;;;;;;;26.98;21.30;;;;;;;14.43;85.35;101421.25;3586214;39;20056;-63
2022/09/12 01:28:58;;;;;;;25.50;22.13;;;;;;;14.42;85.45;101408.66;3588550;39;20134;-63
2022/09/12 01:31:47;;;;;;;27.63;21.02;;;;;;;14.39;85.38;101406.19;3588427;39;20063;-63
2022/09/12 01:34:37;;;;;;;25.00;21.92;;;;;;;14.38;85.42;101415.28;3587729;39;20052;-61
2022/09/12 01:37:34;;;;;;;23.08;20.58;;;;;;;14.40;85.99;101416.03;3586481;39;20305;-62
2022/09/12 01:40:30;;;;;;;26.70;20.92;;;;;;;14.40;85.20;101403.38;3585762;39;20145;-62
2022/09/12 01:43:20;;;;;;;27.13;22.10;;;;;;;14.37;85.19;101400.03;3586091;39;20067;-62
2022/09/12 01:46:11;;;;;;;27.80;22.38;;;;;;;14.39;85.16;101409.75;3587498;39;20048;-62
2022/09/12 01:49:00;;;;;;;27.55;22.48;;;;;;;14.43;85.26;101410.44;3586925;39;20063;-62
2022/09/12 01:51:38;;;;;;;23.80;20.48;;;;;;;14.44;84.32;101404.03;3587177;39;20087;-62
2022/09/12 01:54:41;;;;;;;25.80;21.20;;;;;;;14.43;83.76;101410.44;3584879;39;20067;-63
2022/09/12 01:57:28;;;;;;;23.13;20.60;;;;;;;14.45;83.78;101400.34;3586181;39;20071;-62
2022/09/12 02:00:03;;;;;;;25.92;21.17;;;;;;;14.47;83.76;101394.84;3585707;39;20121;-62
2022/09/12 02:02:58;;;;;;;27.98;21.40;;;;;;;14.47;83.47;101384.03;3588893;39;20056;-63
2022/09/12 02:05:29;;;;;;;27.83;23.55;;;;;;;14.45;84.14;101384.13;3585994;39;20087;-62
2022/09/12 02:08:47;;;;;;;27.42;23.80;;;;;;;14.42;83.96;101378.06;3587070;39;20055;-62
2022/09/12 02:11:13;;;;;;;26.90;22.92;;;;;;;14.39;84.50;101371.88;3586821;39;20471;-62
2022/09/12 02:13:57;;;;;;;29.15;24.08;;;;;;;14.37;84.85;101375.69;3588368;39;20052;-62
2022/09/12 02:16:34;;;;;;;31.35;24.75;;;;;;;14.35;84.65;101374.91;3587071;39;20188;-62
2022/09/12 02:19:22;;;;;;;30.17;23.40;;;;;;;14.32;84.15;101375.13;3584559;39;20060;-63
2022/09/12 02:21:57;;;;;;;29.95;23.85;;;;;;;14.32;84.52;101375.13;3587724;39;20062;-63
2022/09/12 02:24:30;;;;;;;29.95;23.98;;;;;;;14.15;84.94;101347.41;3586678;39;20296;-62
2022/09/12 02:27:08;;;;;;;26.55;23.00;;;;;;;14.30;85.03;101382.47;3588022;39;20300;-62
2022/09/12 02:29:35;;;;;;;28.80;24.00;;;;;;;14.31;85.20;101381.50;3587531;39;20056;-63
2022/09/12 02:32:27;;;;;;;25.92;22.83;;;;;;;14.27;84.12;101378.16;3588780;39;20052;-63
2022/09/12 02:35:18;;;;;;;27.52;23.83;;;;;;;14.29;84.57;101383.44;3584918;39;20051;-62
2022/09/12 02:38:01;;;;;;;26.15;23.17;;;;;;;14.29;84.14;101373.50;3588437;39;20103;-64
2022/09/12 02:40:29;;;;;;;30.33;23.43;;;;;;;14.30;83.70;101382.47;3588603;39;20092;-62
2022/09/12 02:42:56;;;;;;;26.45;22.52;;;;;;;14.31;83.29;101374.25;3588151;39;20271;-62
2022/09/12 02:45:22;;;;;;;25.75;22.95;;;;;;;14.23;83.54;101364.94;3585318;39;20327;-64
2022/09/12 02:48:17;;;;;;;28.13;22.67;;;;;;;14.26;82.91;101373.69;3587419;39;20118;-63
2022/09/12 02:50:43;;;;;;;27.75;23.65;;;;;;;14.22;83.67;101360.50;3587775;39;20394;-63
2022/09/12 02:53:10;;;;;;;29.63;23.83;;;;;;;14.25;83.83;101368.41;3587076;39;20067;-62
2022/09/12 02:55:40;;;;;;;29.70;25.30;;;;;;;14.23;84.17;101359.53;3584969;39;20055;-63
2022/09/12 02:58:16;;;;;;;30.92;25.10;;;;;;;14.21;84.54;101361.47;3588164;39;20056;-62
2022/09/12 03:01:19;;;;;;;29.08;24.40;;;;;;;14.04;84.58;101332.88;3588282;39;20053;-62
2022/09/12 03:04:28;;;;;;;29.83;25.85;;;;;;;14.13;84.65;101354.75;3585325;39;20058;-62
2022/09/12 03:07:53;;;;;;;26.67;23.00;;;;;;;14.08;84.67;101356.03;3588255;39;20055;-63
2022/09/12 03:10:45;;;;;;;29.35;24.48;;;;;;;14.07;84.90;101349.75;3584979;39;20142;-63
2022/09/12 03:13:47;;;;;;;27.77;24.08;;;;;;;14.08;84.59;101346.09;3586127;39;20060;-63
2022/09/12 03:16:33;;;;;;;28.30;24.42;;;;;;;14.08;84.95;101346.09;3583739;39;20052;-63
2022/09/12 03:19:53;;;;;;;28.20;24.20;;;;;;;14.04;84.82;101349.97;3586866;39;20060;-63
2022/09/12 03:22:45;;;;;;;30.80;24.58;;;;;;;14.06;84.18;101339.91;3586200;39;20120;-63
2022/09/12 03:25:47;;;;;;;32.08;24.17;;;;;;;14.05;84.03;101340.00;3586325;39;20070;-62
2022/09/12 03:28:20;;;;;;;31.02;25.92;;;;;;;14.04;84.41;101339.16;3585381;39;20455;-63
2022/09/12 03:30:53;;;;;;;31.48;25.00;;;;;;;14.04;84.87;101343.69;3584844;39;20070;-62
2022/09/12 03:33:24;;;;;;;28.10;25.13;;;;;;;14.05;84.74;101337.31;3587142;39;20130;-63
2022/09/12 03:35:52;;;;;;;31.13;24.88;;;;;;;13.31;84.60;101214.44;3584846;39;20275;-62
2022/09/12 03:38:18;;;;;;;27.38;24.38;;;;;;;14.05;84.61;101340.00;3588917;39;20055;-63
2022/09/12 03:40:45;;;;;;;28.80;24.42;;;;;;;13.97;84.76;101321.63;3590712;39;20544;-62
2022/09/12 03:43:11;;;;;;;30.17;23.67;;;;;;;14.04;84.82;101338.28;3589406;39;20055;-62
2022/09/12 03:45:37;;;;;;;29.00;24.35;;;;;;;13.90;84.87;101310.38;3585262;39;20096;-63
2022/09/12 03:48:05;;;;;;;29.33;24.25;;;;;;;13.87;84.77;101310.56;3589884;39;20064;-62
2022/09/12 03:50:30;;;;;;;28.13;23.38;;;;;;;14.09;85.24;101336.16;3590080;39;20068;-63
2022/09/12 03:52:58;;;;;;;26.92;23.55;;;;;;;14.10;84.81;101338.72;3590933;39;20081;-62
2022/09/12 03:55:25;;;;;;;30.40;24.98;;;;;;;14.09;84.78;101330.75;3588366;39;20082;-61
2022/09/12 03:57:53;;;;;;;30.48;24.55;;;;;;;14.10;84.78;101327.91;3590202;39;20044;-62
2022/09/12 04:00:18;;;;;;;28.15;24.02;;;;;;;14.12;84.67;101331.41;3589743;39;20051;-63
2022/09/12 04:02:44;;;;;;;28.48;24.05;;;;;;;14.15;85.08;101323.06;3589002;39;20115;-63
2022/09/12 04:05:09;;;;;;;30.33;24.88;;;;;;;14.16;84.81;101324.78;3588344;39;20311;-62
2022/09/12 04:07:35;;;;;;;32.17;25.42;;;;;;;14.17;84.95;101321.09;3590531;39;20426;-62
2022/09/12 04:10:01;;;;;;;30.88;24.70;;;;;;;14.19;84.70;101322.88;3590378;39;20047;-63
2022/09/12 04:12:28;;;;;;;29.13;24.52;;;;;;;14.16;84.84;101319.38;3591879;39;20064;-63
2022/09/12 04:14:54;;;;;;;31.90;25.13;;;;;;;14.15;84.90;101320.38;3588899;39;20343;-62
2022/09/12 04:17:19;;;;;;;32.20;25.27;;;;;;;14.14;85.07;101313.25;3587466;39;20118;-61
2022/09/12 04:19:45;;;;;;;29.70;25.20;;;;;;;14.13;85.03;101316.88;3587991;39;20554;-63
2022/09/12 04:22:11;;;;;;;30.23;25.05;;;;;;;14.13;85.25;101308.78;3588757;39;20071;-62
2022/09/12 04:24:36;;;;;;;33.50;25.70;;;;;;;14.15;85.22;101317.66;3588367;39;20055;-63
2022/09/12 04:27:02;;;;;;;34.60;25.58;;;;;;;14.16;85.14;101307.72;3587209;39;20071;-62
2022/09/12 04:29:28;;;;;;;35.75;27.10;;;;;;;14.17;85.13;101309.44;3588370;39;20503;-62
2022/09/12 04:31:53;;;;;;;31.50;25.88;;;;;;;14.18;85.55;101313.88;3589631;39;20052;-62
2022/09/12 04:34:19;;;;;;;31.15;25.38;;;;;;;14.17;85.45;101307.59;3585549;39;20055;-62
2022/09/12 04:36:45;;;;;;;31.00;26.42;;;;;;;14.15;85.51;101298.75;3588171;39;20055;-61
2022/09/12 04:39:11;;;;;;;30.60;25.58;;;;;;;14.20;85.29;101305.66;3589476;39;20054;-63
2022/09/12 04:41:40;;;;;;;32.40;25.52;;;;;;;14.22;85.19;101298.31;3589718;39;20070;-64
2022/09/12 04:44:11;;;;;;;32.58;26.35;;;;;;;14.15;85.07;101276.25;3586162;39;20040;-61
2022/09/12 04:46:42;;;;;;;35.00;26.73;;;;;;;14.31;85.02;101303.94;3591945;39;20052;-63
2022/09/12 04:49:08;;;;;;;33.38;26.38;;;;;;;14.31;84.95;101297.69;3591407;39;20062;-63
2022/09/12 04:51:39;;;;;;;31.27;26.02;;;;;;;14.13;84.56;101262.81;3590165;39;20247;-62
2022/09/12 04:54:15;;;;;;;31.83;26.08;;;;;;;14.32;84.54;101296.69;3587317;39;20056;-64
2022/09/12 04:56:44;;;;;;;32.53;25.17;;;;;;;14.20;84.11;101284.03;3592578;39;20060;-63
2022/09/12 04:59:12;;;;;;;29.35;24.20;;;;;;;14.32;84.00;101302.97;3588739;39;20064;-63
2022/09/12 05:01:38;;;;;;;26.90;23.95;;;;;;;14.30;83.69;101298.63;3590826;39;20056;-61
2022/09/12 05:04:04;;;;;;;30.77;23.42;;;;;;;14.13;83.76;101272.78;3591271;39;20429;-62
2022/09/12 05:06:34;;;;;;;30.15;25.02;;;;;;;14.29;83.78;101296.91;3585669;39;20084;-63
2022/09/12 05:09:02;;;;;;;30.52;24.45;;;;;;;14.30;83.76;101301.31;3591310;39;20052;-62
2022/09/12 05:11:32;;;;;;;32.08;24.60;;;;;;;14.32;83.52;101302.09;3590555;39;20059;-63
2022/09/12 05:13:58;;;;;;;32.20;24.50;;;;;;;14.27;83.83;101296.13;3592182;39;20125;-63
2022/09/12 05:16:27;;;;;;;34.00;26.60;;;;;;;14.27;84.21;101288.91;3588045;39;20068;-62
2022/09/12 05:18:55;;;;;;;36.92;27.45;;;;;;;14.36;84.56;101303.59;3591348;39;20413;-62
2022/09/12 05:21:22;;;;;;;35.28;27.33;;;;;;;14.37;84.87;101305.34;3590155;39;20149;-62
2022/09/12 05:23:52;;;;;;;34.42;26.73;;;;;;;14.35;85.15;101299.19;3593293;39;20056;-64
2022/09/12 05:26:20;;;;;;;33.28;26.48;;;;;;;13.90;85.20;101228.44;3583881;40;20072;-63
2022/09/12 05:28:48;;;;;;;33.47;26.50;;;;;;;14.37;85.46;101310.78;3591702;39;20054;-62
2022/09/12 05:31:18;;;;;;;35.08;26.27;;;;;;;14.38;85.05;101307.09;3590891;39;20118;-61
2022/09/12 05:33:48;;;;;;;32.67;26.60;;;;;;;14.39;85.20;101306.09;3593941;39;20052;-61
2022/09/12 05:36:23;;;;;;;35.45;26.38;;;;;;;14.42;84.86;101305.88;3591537;39;20066;-62
2022/09/12 05:38:49;;;;;;;32.70;25.90;;;;;;;14.44;84.89;101300.38;3592794;39;20369;-63
2022/09/12 05:41:19;;;;;;;34.35;26.35;;;;;;;14.46;85.14;101299.31;3587900;39;20116;-62
2022/09/12 05:43:46;;;;;;;32.88;26.63;;;;;;;14.49;84.73;101306.31;3589235;39;20305;-62
2022/09/12 05:46:17;;;;;;;34.95;26.95;;;;;;;14.50;84.66;101298.09;3589305;39;20109;-62
2022/09/12 05:48:46;;;;;;;34.80;26.95;;;;;;;14.53;85.33;101308.75;3592000;39;20095;-62
2022/09/12 05:51:19;;;;;;;33.75;26.20;;;;;;;14.56;85.04;101318.50;3589615;39;20487;-62
2022/09/12 05:53:50;;;;;;;30.90;25.23;;;;;;;14.59;84.96;101308.31;3592015;39;20058;-62
2022/09/12 05:56:21;;;;;;;32.78;24.88;;;;;;;14.66;84.78;101321.41;3589030;39;20055;-62
2022/09/12 05:58:57;;;;;;;34.35;25.17;;;;;;;14.69;84.60;101318.47;3589623;39;20161;-62
2022/09/12 06:01:24;;;;;;;31.10;25.77;;;;;;;14.76;85.13;101320.63;3587586;39;20056;-61
2022/09/12 06:03:54;;;;;;;32.42;25.30;;;;;;;14.78;84.72;101320.50;3588746;39;20036;-62
2022/09/12 06:06:23;;;;;;;33.47;25.30;;;;;;;14.85;84.15;101327.22;3589504;39;20058;-62
2022/09/12 06:08:52;;;;;;;32.22;25.77;;;;;;;14.88;84.39;101327.00;3581143;39;20059;-64
2022/09/12 06:11:22;;;;;;;29.70;24.73;;;;;;;14.94;84.17;101334.69;3585218;39;20059;-64
2022/09/12 06:13:49;;;;;;;32.85;26.00;;;;;;;14.99;84.63;101334.34;3589149;39;20495;-64
2022/09/12 06:16:23;;;;;;;32.55;25.27;;;;;;;15.01;84.30;101325.16;3586606;39;20052;-64
2022/09/12 06:18:56;;;;;;;31.20;25.10;;;;;;;14.98;84.13;101322.66;3585004;39;20059;-64
2022/09/12 06:21:24;;;;;;;31.60;23.95;;;;;;;15.04;84.29;101330.34;3585328;39;20364;-64
2022/09/12 06:23:49;;;;;;;32.40;25.08;;;;;;;15.06;84.10;101322.97;3587783;39;20325;-63
2022/09/12 06:26:20;;;;;;;29.48;24.05;;;;;;;15.11;84.36;101327.19;3591068;39;20059;-64
2022/09/12 06:28:46;;;;;;;28.73;23.27;;;;;;;15.11;84.42;101325.34;3590988;39;20105;-64
2022/09/12 06:31:19;;;;;;;30.15;23.80;;;;;;;15.13;84.08;101311.66;3589559;39;20056;-66
2022/09/12 06:33:49;;;;;;;28.75;23.02;;;;;;;15.15;83.99;101312.44;3590309;39;20071;-64
2022/09/12 06:36:21;;;;;;;29.63;23.30;;;;;;;15.19;83.99;101308.50;3586921;39;20051;-63
2022/09/12 06:38:47;;;;;;;27.50;22.65;;;;;;;15.15;83.67;101301.59;3587829;39;20456;-63
2022/09/12 06:41:14;;;;;;;28.40;21.73;;;;;;;15.17;84.09;101297.81;3588518;39;20062;-64
2022/09/12 06:43:41;;;;;;;27.38;22.45;;;;;;;15.24;83.93;101300.94;3591550;39;20396;-63
2022/09/12 06:46:09;;;;;;;26.40;21.35;;;;;;;15.38;83.66;101319.75;3591290;39;20062;-63
2022/09/12 06:48:35;;;;;;;24.80;21.08;;;;;;;15.41;82.87;101322.19;3578171;40;20405;-64
2022/09/12 06:51:09;;;;;;;23.08;20.35;;;;;;;15.51;82.83;101317.84;3591659;39;20394;-64
2022/09/12 06:53:36;;;;;;;23.75;20.40;;;;;;;15.61;83.18;101311.75;3585194;39;20391;-64
2022/09/12 06:56:18;;;;;;;24.83;20.00;;;;;;;15.62;81.96;101305.34;3588194;39;20295;-64
2022/09/12 06:58:45;;;;;;;24.70;19.50;;;;;;;15.78;82.32;101311.34;3589161;39;20063;-64
2022/09/12 07:01:24;;;;;;;22.13;19.08;;;;;;;15.70;81.53;101283.97;3587099;39;20052;-64
2022/09/12 07:03:54;;;;;;;23.13;19.90;;;;;;;15.93;81.72;101315.59;3587499;39;20327;-64
2022/09/12 07:06:28;;;;;;;25.58;20.27;;;;;;;16.00;81.79;101311.44;3586405;39;20074;-63
2022/09/12 07:08:56;;;;;;;22.75;19.10;;;;;;;16.06;81.51;101311.97;3588389;39;20055;-63
2022/09/12 07:11:25;;;;;;;22.85;18.33;;;;;;;16.05;80.35;101316.53;3584872;39;20056;-64
2022/09/12 07:13:55;;;;;;;22.92;19.30;;;;;;;16.08;81.08;101323.53;3588708;39;20102;-64
2022/09/12 07:16:22;;;;;;;22.27;19.10;;;;;;;16.11;80.71;101326.91;3584965;39;20132;-64
2022/09/12 07:19:03;;;;;;;24.92;19.88;;;;;;;16.13;80.99;101305.06;3585368;39;20058;-64
2022/09/12 07:21:30;;;;;;;21.52;19.23;;;;;;;16.27;80.53;101321.16;3588638;39;20314;-64
2022/09/12 07:23:57;;;;;;;20.92;18.63;;;;;;;16.33;80.67;101308.94;3587618;39;20048;-65
2022/09/12 07:26:25;;;;;;;22.60;20.17;;;;;;;16.43;81.23;101309.97;3584461;39;20060;-64
2022/09/12 07:28:53;;;;;;;20.00;17.88;;;;;;;16.56;80.06;101302.56;3589944;39;20064;-65
2022/09/12 07:31:21;;;;;;;21.02;18.20;;;;;;;16.77;79.81;101308.16;3587153;39;20274;-65
2022/09/12 07:33:49;;;;;;;23.23;18.77;;;;;;;16.98;79.12;101316.44;3589168;39;20369;-64
2022/09/12 07:36:17;;;;;;;19.23;16.85;;;;;;;17.14;77.70;101310.59;3589598;39;20075;-65
2022/09/12 07:38:45;;;;;;;19.42;17.15;;;;;;;17.33;77.39;101310.81;3592221;39;20051;-64
2022/09/12 07:41:23;;;;;;;19.15;15.90;;;;;;;17.47;76.37;101298.78;3588364;39;20048;-64
2022/09/12 07:43:58;;;;;;;19.92;17.45;;;;;;;17.68;76.27;101312.44;3587178;39;20320;-64
2022/09/12 07:46:26;;;;;;;19.30;16.20;;;;;;;17.71;74.80;101293.16;3586882;39;20106;-63
2022/09/12 07:48:55;;;;;;;18.50;16.52;;;;;;;18.01;75.32;101318.78;3587022;39;20113;-64
2022/09/12 07:51:23;;;;;;;19.92;16.02;;;;;;;18.23;74.78;101315.94;3586056;39;20100;-64
2022/09/12 07:53:49;;;;;;;18.02;15.88;;;;;;;18.14;73.83;101266.88;3586301;39;20441;-64
2022/09/12 07:56:16;;;;;;;19.85;15.57;;;;;;;18.61;73.00;101311.72;3585631;39;20059;-64
2022/09/12 07:58:43;;;;;;;19.50;15.55;;;;;;;18.82;71.85;101322.63;3585782;39;20433;-64
2022/09/12 08:01:19;;;;;;;21.05;15.50;;;;;;;19.05;71.13;101317.84;3587045;39;20059;-65
2022/09/12 08:03:48;;;;;;;16.85;15.05;;;;;;;19.20;71.14;101313.72;3587751;39;20060;-64
2022/09/12 08:06:20;;;;;;;16.05;14.45;;;;;;;19.37;68.85;101314.06;3587611;39;20484;-65
2022/09/12 08:08:47;;;;;;;18.52;15.93;;;;;;;19.51;69.42;101312.81;3587382;39;20075;-64
2022/09/12 08:11:17;;;;;;;16.95;15.25;;;;;;;19.66;69.45;101309.56;3587143;39;20376;-65
2022/09/12 08:13:44;;;;;;;17.00;14.70;;;;;;;19.84;69.30;101314.31;3588300;39;20115;-64
2022/09/12 08:16:22;;;;;;;18.60;14.15;;;;;;;19.93;67.91;101305.25;3586652;39;20092;-63
2022/09/12 08:18:48;;;;;;;15.60;13.95;;;;;;;20.12;67.21;101313.44;3586853;39;20128;-64
2022/09/12 08:21:21;;;;;;;17.83;14.45;;;;;;;20.34;67.43;101322.31;3580159;40;20058;-64
2022/09/12 08:23:54;;;;;;;15.63;13.82;;;;;;;20.42;65.57;101325.16;3587611;39;20060;-65
2022/09/12 08:26:20;;;;;;;15.48;13.10;;;;;;;20.50;65.19;101328.03;3585441;39;20128;-65
2022/09/12 08:28:46;;;;;;;14.43;12.85;;;;;;;20.55;65.37;101331.22;3587946;39;20695;-64
2022/09/12 08:31:20;;;;;;;14.35;12.85;;;;;;;20.71;65.30;101338.81;3587712;39;20371;-65
2022/09/12 08:33:45;;;;;;;;;;;;;;;20.74;64.99;101332.16;3575762;39;20098;-64
2022/09/12 08:36:15;;;;;;;15.27;12.88;;;;;;;20.91;64.82;101336.00;3585978;39;20274;-65
2022/09/12 08:38:44;;;;;;;15.43;13.25;;;;;;;21.07;65.03;101333.47;3587471;39;20048;-65
2022/09/12 08:41:33;;;;;;;13.85;11.80;;;;;;;21.24;64.42;101340.00;3588008;39;20128;-66
2022/09/12 08:44:42;;;;;;;13.10;11.75;;;;;;;21.50;62.94;101330.13;3587421;39;20072;-65
2022/09/12 08:47:23;;;;;;;14.07;12.27;;;;;;;21.83;63.64;101332.34;3590679;39;20056;-66
2022/09/12 08:50:07;;;;;;;13.65;12.25;;;;;;;22.11;62.42;101330.38;3591308;39;20067;-66
2022/09/12 08:53:13;;;;;;;12.82;11.50;;;;;;;22.21;61.18;101303.78;3587648;39;20113;-65
2022/09/12 08:55:50;;;;;;;11.38;9.77;;;;;;;22.55;60.57;101324.91;3589737;39;20056;-66
2022/09/12 08:58:21;;;;;;;11.95;10.25;;;;;;;22.76;59.29;101324.53;3587617;39;20082;-65
2022/09/12 09:01:06;;;;;;;12.43;11.13;;;;;;;22.91;59.98;101321.03;3589515;39;20369;-65
2022/09/12 09:03:45;;;;;;;10.57;9.27;;;;;;;23.20;58.37;101322.56;3587862;39;20043;-66
2022/09/12 09:06:38;;;;;;;10.95;9.73;;;;;;;23.50;57.80;101317.50;3589642;39;20059;-65
2022/09/12 09:09:15;;;;;;;12.20;10.45;;;;;;;23.62;56.10;101319.78;3585704;39;20444;-66
2022/09/12 09:12:29;;;;;;;9.55;8.35;;;;;;;23.69;56.74;101303.53;3585251;39;20077;-66
2022/09/12 09:15:39;;;;;;;8.73;7.93;;;;;;;23.93;55.10;101312.81;3565115;39;20058;-65
2022/09/12 09:18:25;;;;;;;8.68;7.57;;;;;;;24.17;55.47;101314.72;3586842;39;20063;-66
2022/09/12 09:20:59;;;;;;;9.00;8.07;;;;;;;24.28;54.86;101306.97;3588795;39;20062;-66
2022/09/12 09:23:30;;;;;;;10.27;8.57;;;;;;;24.41;54.28;101313.84;3586987;39;20051;-65
2022/09/12 09:26:02;;;;;;;8.73;7.88;;;;;;;24.42;53.03;101301.84;3588126;39;20056;-66
2022/09/12 09:28:46;;;;;;;7.90;7.13;;;;;;;24.51;52.69;101300.81;3587634;39;20412;-67
2022/09/12 09:31:16;;;;;;;12.35;8.60;;;;;;;24.61;51.80;101309.75;3585961;39;20400;-66
2022/09/12 09:33:46;;;;;;;10.20;6.95;;;;;;;24.81;53.75;101306.59;3579786;39;20202;-67
2022/09/12 09:36:42;;;;;;;8.13;7.35;;;;;;;25.12;51.02;101302.03;3586922;39;20077;-66
2022/09/12 09:39:28;;;;;;;8.23;7.35;;;;;;;25.32;50.68;101301.59;3588315;39;20058;-66
2022/09/12 09:42:12;;;;;;;8.05;6.70;;;;;;;25.43;50.01;101301.19;3591514;39;20051;-66
2022/09/12 09:44:38;;;;;;;;;;;;;;;25.47;49.69;101291.53;3586850;39;20334;-66
2022/09/12 09:47:04;;;;;;;7.28;6.57;;;;;;;25.65;49.91;101281.06;3588281;39;19943;-66
2022/09/12 09:49:34;;;;;;;7.10;6.30;;;;;;;25.75;49.07;101268.97;3589667;39;20100;-67
2022/09/12 09:52:01;;;;;;;7.97;6.28;;;;;;;26.01;48.46;101275.00;3587264;39;20107;-65
2022/09/12 09:54:43;;;;;;;8.10;6.00;;;;;;;26.14;48.26;101280.75;3587599;39;20063;-66
2022/09/12 09:57:33;;;;;;;6.95;5.80;;;;;;;26.24;46.80;101282.38;3586729;39;20619;-66
2022/09/12 10:00:31;;;;;;;8.68;6.05;;;;;;;26.16;46.54;101270.41;3587139;39;20145;-66
2022/09/12 10:03:09;;;;;;;6.18;5.60;;;;;;;26.26;46.67;101264.63;3587542;39;20322;-67
2022/09/12 10:05:53;;;;;;;6.25;5.40;;;;;;;26.30;46.53;101259.59;3588404;39;20060;-67
2022/09/12 10:08:30;;;;;;;7.60;5.63;;;;;;;26.40;46.66;101273.94;3585226;39;20060;-66
2022/09/12 10:11:15;;;;;;;5.40;4.90;;;;;;;26.54;45.85;101256.56;3587200;39;20052;-67
2022/09/12 10:13:53;;;;;;;6.47;4.93;;;;;;;26.61;45.65;101252.03;3585813;39;20047;-66
2022/09/12 10:16:26;;;;;;;4.97;4.47;;;;;;;26.59;44.88;101254.13;3586528;39;20106;-67
2022/09/12 10:18:56;;;;;;;;;;;;;;;26.51;43.02;101250.59;3585052;39;20216;-66
2022/09/12 10:21:38;;;;;;;5.95;4.22;;;;;;;26.52;46.17;101239.38;3584284;39;20094;-67
2022/09/12 10:24:33;;;;;;;4.68;3.83;;;;;;;26.73;44.76;101238.59;3587546;39;20571;-66
2022/09/12 10:27:19;;;;;;;6.50;5.00;;;;;;;26.73;44.81;101226.72;3590499;39;21334;-66
2022/09/12 10:30:18;;;;;;;5.85;4.93;;;;;;;26.71;45.78;101215.91;3592730;39;20052;-66
2022/09/12 10:32:52;;;;;;;5.93;5.25;;;;;;;26.91;44.22;101227.19;3590266;39;20224;-67
2022/09/12 10:35:24;;;;;;;6.00;5.10;;;;;;;27.05;45.23;101228.19;3588523;39;20489;-67
2022/09/12 10:38:05;;;;;;;5.13;4.50;;;;;;;27.26;43.33;101216.38;3591213;39;20052;-66
2022/09/12 10:40:39;;;;;;;5.28;4.20;;;;;;;27.25;43.14;101220.22;3590406;39;20075;-65
2022/09/12 10:43:40;;;;;;;4.03;3.50;;;;;;;27.39;43.10;101226.72;3588337;39;20448;-65
2022/09/12 10:46:14;;;;;;;3.53;3.22;;;;;;;27.53;41.97;101223.06;3588943;39;20112;-67
2022/09/12 10:48:42;;;;;;;4.15;3.55;;;;;;;27.74;41.93;101205.63;3585607;39;20063;-67
2022/09/12 10:51:28;;;;;;;6.22;3.78;;;;;;;27.81;41.34;101200.19;3584875;39;20384;-66
2022/09/12 10:54:00;;;;;;;3.40;3.10;;;;;;;27.95;42.48;101207.53;3587120;39;20339;-66
2022/09/12 10:56:54;;;;;;;4.90;3.75;;;;;;;28.11;41.73;101209.16;3588116;39;20098;-67
2022/09/12 10:59:55;;;;;;;4.07;3.38;;;;;;;28.13;40.94;101196.84;3588327;39;21140;-66
2022/09/12 11:02:48;;;;;;;6.10;3.05;;;;;;;28.31;40.83;101199.06;3586903;39;21673;-66
2022/09/12 11:06:04;;;;;;;3.75;2.85;;;;;;;28.54;40.97;101203.50;3587547;39;20545;-67
2022/09/12 11:09:03;;;;;;;4.70;3.10;;;;;;;28.55;39.48;101188.63;3568152;39;20059;-66
2022/09/12 11:11:52;;;;;;;3.17;2.90;;;;;;;28.74;38.84;101193.41;3587174;39;20058;-67
2022/09/12 11:14:53;;;;;;;3.05;2.78;;;;;;;28.89;39.28;101191.34;3585867;39;20118;-66
2022/09/12 11:17:35;;;;;;;3.38;2.60;;;;;;;29.00;38.12;101187.13;3587329;39;20095;-67
2022/09/12 11:20:15;;;;;;;6.35;3.20;;;;;;;29.13;38.34;101186.34;3588863;39;20116;-68
2022/09/12 11:22:44;;;;;;;3.33;3.10;;;;;;;29.06;39.13;101182.72;3589088;39;20054;-67
2022/09/12 11:25:09;;;;;;;4.57;3.10;;;;;;;29.12;37.38;101179.97;3584568;39;20121;-66
2022/09/12 11:27:46;;;;;;;3.20;2.65;;;;;;;29.23;38.06;101180.41;3587930;39;20052;-66
2022/09/12 11:30:16;;;;;;;2.42;2.22;;;;;;;29.27;36.75;101179.75;3586038;39;20126;-67
2022/09/12 11:33:21;;;;;;;4.85;2.20;;;;;;;29.37;36.42;101171.06;3589719;39;20060;-67
2022/09/12 11:35:51;;;;;;;2.60;2.40;;;;;;;29.43;35.13;101174.91;3591470;39;20121;-67
2022/09/12 11:38:45;;;;;;;2.67;2.33;;;;;;;29.60;36.35;101171.56;3586090;39;20070;-67
2022/09/12 11:41:30;;;;;;;2.30;2.10;;;;;;;29.78;34.60;101172.81;3587608;39;20137;-67
2022/09/12 11:44:05;;;;;;;2.25;1.90;;;;;;;29.83;35.24;101175.81;3590259;39;20060;-67
2022/09/12 11:46:37;;;;;;;2.28;2.08;;;;;;;29.91;33.54;101177.50;3588870;39;20144;-66
2022/09/12 11:49:14;;;;;;;2.30;2.20;;;;;;;29.76;34.15;101159.19;3586844;39;20055;-65
2022/09/12 11:52:06;;;;;;;2.10;1.75;;;;;;;30.03;35.24;101173.03;3589148;39;20048;-66
2022/09/12 11:55:00;;;;;;;3.00;2.00;;;;;;;30.17;33.98;101179.44;3589577;39;20083;-67